Time;durP1;ratioP1;P1;durP2;ratioP2;P2;SDS_P1;SDS_P2;PMS_P1;PMS_P2;Temp;Humidity;BMP_temperature;BMP_pressure;BME280_temperature;BME280_humidity;BME280_pressure;Samples;Min_cycle;Max_cycle;Signal;HPM_P1;HPM_P2
2023/04/18 00:00:36;;;;;;;;;60.50;47.25;;;;;13.06;62.39;101748.03;2079648;28;45690;-66
2023/04/18 00:01:39;;;;;;;;;59.00;47.50;;;;;13.05;62.34;101752.47;2078144;28;45884;-66
2023/04/18 00:02:39;;;;;;;;;61.20;49.20;;;;;13.04;62.50;101756.03;2080833;28;46089;-67
2023/04/18 00:03:39;;;;;;;;;53.50;42.00;;;;;13.04;62.39;101755.16;2078782;28;46059;-67
2023/04/18 00:04:40;;;;;;;;;55.25;45.75;;;;;13.02;62.46;101749.88;2064842;28;45870;-67
2023/04/18 00:05:42;;;;;;;;;66.00;48.50;;;;;13.00;62.26;101751.69;2062556;28;46509;-68
2023/04/18 00:06:43;;;;;;;;;59.80;48.00;;;;;12.97;62.34;101746.41;2078872;28;45956;-66
2023/04/18 00:07:43;;;;;;;;;59.25;48.25;;;;;12.95;62.54;101746.41;2076976;28;46701;-66
2023/04/18 00:08:44;;;;;;;;;57.25;47.50;;;;;12.94;62.56;101741.97;2077880;28;46902;-67
2023/04/18 00:09:44;;;;;;;;;54.75;45.00;;;;;12.93;62.64;101744.66;2079613;28;46471;-67
2023/04/18 00:10:45;;;;;;;;;60.50;46.50;;;;;12.91;62.51;101742.03;2079714;28;46794;-66
2023/04/18 00:11:45;;;;;;;;;57.80;46.20;;;;;12.90;62.61;101742.94;2078530;28;46664;-66
2023/04/18 00:12:46;;;;;;;;;60.75;48.00;;;;;12.89;62.78;101740.31;2078529;28;46593;-66
2023/04/18 00:13:46;;;;;;;;;58.75;47.50;;;;;12.87;62.84;101740.31;2072464;28;46695;-66
2023/04/18 00:14:49;;;;;;;;;59.75;47.75;;;;;12.84;62.77;101745.72;2075189;28;46200;-66
2023/04/18 00:15:52;;;;;;;;;61.80;49.40;;;;;12.82;62.88;101742.16;2076900;28;47045;-67
2023/04/18 00:16:53;;;;;;;;;46.00;35.80;;;;;12.82;62.68;101749.28;2077422;28;46934;-66
2023/04/18 00:17:55;;;;;;;;;61.50;50.50;;;;;12.81;62.84;101748.38;2081571;28;46335;-67
2023/04/18 00:18:56;;;;;;;;;61.20;48.00;;;;;12.82;62.83;101741.28;2079960;28;45842;-67
2023/04/18 00:19:57;;;;;;;;;58.50;47.75;;;;;12.79;62.67;101744.00;2076475;28;45656;-66
2023/04/18 00:20:57;;;;;;;;;59.40;47.60;;;;;12.77;62.86;101741.34;2077634;28;46530;-66
2023/04/18 00:21:58;;;;;;;;;61.25;49.00;;;;;12.76;62.96;101742.25;2079663;28;46392;-66
2023/04/18 00:22:59;;;;;;;;;56.80;47.00;;;;;12.75;63.05;101745.84;2077144;28;45821;-67
2023/04/18 00:23:59;;;;;;;;;57.50;46.75;;;;;12.74;62.92;101744.06;2081579;28;46062;-67
2023/04/18 00:25:00;;;;;;;;;60.50;48.00;;;;;12.76;63.09;101742.25;2079583;28;46201;-67
2023/04/18 00:26:01;;;;;;;;;59.75;47.00;;;;;12.75;63.08;101744.94;2079485;28;45815;-67
2023/04/18 00:27:02;;;;;;;;;61.50;49.00;;;;;12.74;62.94;101741.41;2078705;28;46266;-68
2023/04/18 00:28:02;;;;;;;;;60.80;48.60;;;;;12.76;63.06;101738.72;2079381;28;46003;-67
2023/04/18 00:29:02;;;;;;;;;63.25;49.50;;;;;12.75;63.12;101736.97;2081629;28;45888;-67
2023/04/18 00:30:04;;;;;;;;;61.75;48.75;;;;;12.74;63.07;101741.41;2084319;28;45621;-67
2023/04/18 00:31:04;;;;;;;;;58.40;48.00;;;;;12.74;63.14;101736.09;2095352;28;46751;-67
2023/04/18 00:32:05;;;;;;;;;59.75;47.75;;;;;12.75;63.04;101744.94;2096771;28;46552;-67
2023/04/18 00:33:05;;;;;;;;;64.00;48.75;;;;;12.73;63.16;101739.66;2094758;28;45692;-66
2023/04/18 00:34:05;;;;;;;;;60.25;49.00;;;;;12.73;63.04;101741.44;2095663;28;46507;-66
2023/04/18 00:35:06;;;;;;;;;57.50;45.00;;;;;12.72;63.18;101740.56;2094496;28;46811;-65
2023/04/18 00:36:07;;;;;;;;;59.25;48.00;;;;;12.71;63.34;101732.59;2096741;28;46549;-66
2023/04/18 00:37:07;;;;;;;;;59.50;48.00;;;;;12.70;63.25;101741.44;2095022;28;46800;-67
2023/04/18 00:38:07;;;;;;;;;63.00;49.50;;;;;12.68;63.29;101736.16;2095250;28;47151;-67
2023/04/18 00:39:08;;;;;;;;;58.25;48.00;;;;;12.67;63.30;101737.94;2094995;28;48255;-65
2023/04/18 00:40:09;;;;;;;;;60.75;50.00;;;;;12.65;63.40;101737.09;2098852;28;46480;-66
2023/04/18 00:41:09;;;;;;;;;62.50;50.50;;;;;12.64;63.49;101731.78;2095718;28;46826;-65
2023/04/18 00:42:09;;;;;;;;;61.50;48.00;;;;;12.64;63.38;101735.31;2097890;28;46622;-66
2023/04/18 00:43:13;;;;;;;;;64.25;49.75;;;;;12.64;63.38;101737.09;2087458;28;46616;-67
2023/04/18 00:44:14;;;;;;;;;60.00;47.80;;;;;12.64;63.52;101726.47;2092998;28;47226;-66
2023/04/18 00:45:14;;;;;;;;;60.25;48.50;;;;;12.64;63.37;101729.13;2097116;28;45230;-67
2023/04/18 00:46:14;;;;;;;;;62.75;50.00;;;;;12.64;63.43;101734.44;2086094;28;46867;-67
2023/04/18 00:47:16;;;;;;;;;63.50;50.25;;;;;12.65;63.53;101733.53;2086537;28;45788;-67
2023/04/18 00:48:17;;;;;;;;;65.00;51.60;;;;;12.66;63.43;101729.97;2096513;28;46401;-65
2023/04/18 00:49:17;;;;;;;;;61.50;50.25;;;;;12.66;63.66;101733.50;2093812;28;45857;-66
2023/04/18 00:50:18;;;;;;;;;62.75;50.00;;;;;12.67;63.54;101731.72;2095931;28;46447;-67
2023/04/18 00:51:20;;;;;;;;;64.60;50.60;;;;;12.68;63.38;101726.38;2095667;28;47647;-66
2023/04/18 00:52:20;;;;;;;;;61.00;49.60;;;;;12.69;63.89;101719.28;2095941;28;46990;-65
2023/04/18 00:53:21;;;;;;;;;63.25;50.25;;;;;12.70;63.44;101721.03;2094417;28;45130;-68
2023/04/18 00:54:23;;;;;;;;;58.50;47.00;;;;;12.70;63.60;101723.69;2097831;28;46530;-65
2023/04/18 00:55:23;;;;;;;;;60.60;49.60;;;;;12.70;63.63;101714.81;2094712;28;46970;-66
2023/04/18 00:56:24;;;;;;;;;60.25;47.50;;;;;12.70;63.43;101720.16;2097144;28;46387;-66
2023/04/18 00:57:25;;;;;;;;;62.80;50.40;;;;;12.70;63.47;101721.03;2094293;28;46722;-67
2023/04/18 00:58:25;;;;;;;;;62.00;49.00;;;;;12.68;63.44;101726.38;2096741;28;45477;-66
2023/04/18 00:59:25;;;;;;;;;61.50;49.75;;;;;12.69;63.66;101713.94;2095545;28;46399;-67
2023/04/18 01:00:26;;;;;;;;;61.75;48.25;;;;;12.70;63.54;101720.16;2097208;28;45458;-66
2023/04/18 01:01:26;;;;;;;;;63.00;50.25;;;;;12.70;63.50;101720.16;2094881;28;47001;-67
2023/04/18 01:02:29;;;;;;;;;62.50;49.50;;;;;12.70;63.53;101718.34;2096583;28;45856;-66
2023/04/18 01:03:29;;;;;;;;;53.40;45.00;;;;;12.72;63.55;101715.69;2094173;28;46642;-66
2023/04/18 01:04:33;;;;;;;;;63.75;50.50;;;;;12.72;63.61;101713.91;2098505;28;45801;-67
2023/04/18 01:05:35;;;;;;;;;57.60;46.60;;;;;12.73;63.40;101715.69;2086553;28;46802;-65
2023/04/18 01:06:35;;;;;;;;;60.60;49.00;;;;;12.74;63.55;101716.56;2088899;28;46619;-67
2023/04/18 01:07:39;;;;;;;;;62.75;50.25;;;;;12.74;63.51;101720.09;2094054;28;46509;-66
2023/04/18 01:08:41;;;;;;;;;64.20;52.00;;;;;12.74;63.43;101717.44;2096782;28;46525;-68
2023/04/18 01:09:41;;;;;;;;;63.40;50.40;;;;;12.75;63.40;101713.00;2095428;28;46788;-66
2023/04/18 01:10:42;;;;;;;;;58.50;48.25;;;;;12.75;63.50;101713.88;2093447;28;46061;-66
2023/04/18 01:11:42;;;;;;;;;57.75;47.25;;;;;12.77;63.52;101716.50;2086335;28;46577;-66
2023/04/18 01:12:42;;;;;;;;;62.00;49.25;;;;;12.78;63.66;101713.81;2085082;28;47010;-66
2023/04/18 01:13:57;;;;;;;;;61.50;49.25;;;;;12.76;63.56;101712.09;2095449;28;46803;-66
2023/04/18 01:14:59;;;;;;;;;63.60;51.60;;;;;12.77;63.19;101711.19;2096934;27;46863;-65
2023/04/18 01:15:59;;;;;;;;;64.00;52.00;;;;;12.76;63.21;101718.28;2086278;28;46225;-67
2023/04/18 01:17:00;;;;;;;;;63.50;50.50;;;;;12.76;63.49;101706.75;2086268;28;46045;-66
2023/04/18 01:18:01;;;;;;;;;66.00;51.25;;;;;12.76;63.71;101709.41;2090496;28;45301;-67
2023/04/18 01:19:02;;;;;;;;;63.50;51.00;;;;;12.75;63.50;101705.88;2094858;28;46775;-67
2023/04/18 01:20:05;;;;;;;;;64.40;51.00;;;;;12.77;63.56;101706.72;2096289;28;46317;-68
2023/04/18 01:21:05;;;;;;;;;62.00;49.60;;;;;12.76;63.65;101706.75;2093971;28;47070;-66
2023/04/18 01:22:06;;;;;;;;;64.75;51.25;;;;;12.77;63.45;101703.19;2094280;28;46270;-66
2023/04/18 01:23:09;;;;;;;;;64.00;51.00;;;;;12.77;63.58;101703.19;2097778;28;46873;-66
2023/04/18 01:24:13;;;;;;;;;57.80;47.60;;;;;12.77;63.51;101701.41;2095878;28;46696;-66
2023/04/18 01:25:14;;;;;;;;;63.40;51.80;;;;;12.76;63.62;101702.31;2093325;28;45891;-67
2023/04/18 01:26:14;;;;;;;;;65.50;52.50;;;;;12.76;63.65;101702.31;2099582;28;46493;-66
2023/04/18 01:27:15;;;;;;;;;63.50;49.50;;;;;12.76;63.53;101704.09;2096291;28;45532;-66
2023/04/18 01:28:15;;;;;;;;;62.00;49.50;;;;;12.75;63.66;101700.56;2101818;28;46130;-65
2023/04/18 01:29:16;;;;;;;;;64.50;52.00;;;;;12.74;63.55;101701.47;2090232;28;46071;-66
2023/04/18 01:30:16;;;;;;;;;61.75;49.00;;;;;12.72;63.66;101692.63;2100312;28;47975;-66
2023/04/18 01:31:17;;;;;;;;;65.00;50.25;;;;;12.73;63.77;101694.38;2091537;28;46671;-66
2023/04/18 01:32:19;;;;;;;;;64.50;50.25;;;;;12.72;63.73;101692.63;2095395;28;46616;-66
2023/04/18 01:33:19;;;;;;;;;63.80;51.60;;;;;12.72;63.59;101684.63;2093940;28;46412;-65
2023/04/18 01:34:20;;;;;;;;;66.50;50.50;;;;;12.71;63.64;101690.84;2096703;28;45713;-66
2023/04/18 01:35:20;;;;;;;;;57.25;46.75;;;;;12.71;63.71;101689.97;2091735;28;46056;-66
2023/04/18 01:36:20;;;;;;;;;66.50;52.50;;;;;12.68;63.91;101694.41;2096239;28;46187;-67
2023/04/18 01:37:21;;;;;;;;;65.00;51.75;;;;;12.67;63.88;101692.66;2094700;28;46442;-65
2023/04/18 01:38:21;;;;;;;;;64.25;51.00;;;;;12.67;63.64;101690.00;2095958;28;46828;-67
2023/04/18 01:39:22;;;;;;;;;64.00;51.00;;;;;12.67;63.71;101690.00;2092447;28;47026;-67
2023/04/18 01:40:23;;;;;;;;;63.00;48.75;;;;;12.67;63.83;101695.31;2098594;28;46541;-66
2023/04/18 01:41:24;;;;;;;;;64.20;50.60;;;;;12.67;63.78;101695.31;2096413;28;46290;-66
2023/04/18 01:42:24;;;;;;;;;64.25;51.50;;;;;12.66;63.90;101693.56;2087570;28;46313;-66
2023/04/18 01:43:24;;;;;;;;;63.00;49.25;;;;;12.65;63.76;101691.81;2085765;28;46231;-65
2023/04/18 01:44:25;;;;;;;;;63.00;51.00;;;;;12.65;63.76;101689.16;2080425;28;45936;-66
2023/04/18 01:45:25;;;;;;;;;68.25;53.00;;;;;12.64;63.83;101689.16;2092447;28;46472;-66
2023/04/18 01:46:26;;;;;;;;;63.00;50.75;;;;;12.63;63.87;101688.28;2092257;28;46653;-65
2023/04/18 01:47:26;;;;;;;;;65.50;51.75;;;;;12.62;63.96;101681.22;2095064;28;45622;-66
2023/04/18 01:48:27;;;;;;;;;65.00;51.75;;;;;12.61;63.79;101684.78;2095791;28;46765;-65
2023/04/18 01:49:27;;;;;;;;;67.50;53.75;;;;;12.60;63.95;101680.34;2094565;28;46267;-66
2023/04/18 01:50:27;;;;;;;;;61.00;49.25;;;;;12.59;63.77;101691.03;2097181;28;46051;-65
2023/04/18 01:51:28;;;;;;;;;66.75;52.00;;;;;12.59;63.97;101691.03;2093478;28;45145;-66
2023/04/18 01:52:28;;;;;;;;;62.50;50.50;;;;;12.57;64.13;101680.38;2100353;28;46263;-67
2023/04/18 01:53:29;;;;;;;;;66.25;52.25;;;;;12.56;63.85;101681.28;2095463;28;46066;-67
2023/04/18 01:54:29;;;;;;;;;63.20;51.40;;;;;12.56;63.88;101677.75;2094866;28;45976;-66
2023/04/18 01:55:30;;;;;;;;;61.00;49.75;;;;;12.55;64.10;101682.19;2094713;28;46491;-65
2023/04/18 01:56:30;;;;;;;;;67.50;53.25;;;;;12.54;64.12;101688.41;2087988;28;45701;-66
2023/04/18 01:57:31;;;;;;;;;61.50;50.50;;;;;12.53;64.23;101683.13;2078239;28;46874;-66
2023/04/18 01:58:32;;;;;;;;;66.80;52.20;;;;;12.52;64.11;101684.03;2087622;28;46726;-67
2023/04/18 01:59:32;;;;;;;;;63.25;50.25;;;;;12.50;64.11;101680.50;2093958;28;46566;-66
2023/04/18 02:00:32;;;;;;;;;60.50;49.00;;;;;12.49;64.12;101684.06;2096819;28;45399;-66
2023/04/18 02:01:33;;;;;;;;;66.25;51.50;;;;;12.49;64.05;101689.41;2092886;28;46559;-65
2023/04/18 02:02:33;;;;;;;;;70.75;55.25;;;;;12.47;64.12;101689.41;2088704;28;45176;-65
2023/04/18 02:03:34;;;;;;;;;66.50;51.50;;;;;12.46;64.34;101685.00;2085970;28;46541;-66
2023/04/18 02:04:34;;;;;;;;;60.75;50.25;;;;;12.46;64.30;101689.44;2087606;28;46834;-66
2023/04/18 02:05:36;;;;;;;;;68.00;53.75;;;;;12.45;64.20;101691.22;2094056;28;46601;-67
2023/04/18 02:06:36;;;;;;;;;66.60;53.60;;;;;12.44;64.23;101684.13;2095988;28;45854;-66
2023/04/18 02:07:36;;;;;;;;;67.00;53.25;;;;;12.43;64.36;101686.81;2098433;28;46353;-66
2023/04/18 02:08:37;;;;;;;;;66.25;53.00;;;;;12.43;64.42;101686.81;2093463;28;46630;-66
2023/04/18 02:09:37;;;;;;;;;66.50;52.25;;;;;12.44;64.49;101685.91;2095122;28;46925;-66
2023/04/18 02:10:38;;;;;;;;;69.00;54.00;;;;;12.43;64.28;101682.34;2097480;28;46659;-67
2023/04/18 02:11:38;;;;;;;;;65.20;52.20;;;;;12.43;64.45;101685.03;2092563;28;46083;-66
2023/04/18 02:12:39;;;;;;;;;65.75;52.00;;;;;12.42;64.43;101677.94;2093751;28;45496;-65
2023/04/18 02:13:39;;;;;;;;;66.00;52.50;;;;;12.42;64.54;101685.94;2095098;28;46620;-66
2023/04/18 02:14:39;;;;;;;;;64.50;52.25;;;;;12.41;64.54;101677.97;2094590;28;46481;-67
2023/04/18 02:15:40;;;;;;;;;63.75;50.00;;;;;12.40;64.47;101685.06;2095905;28;46259;-67
2023/04/18 02:16:40;;;;;;;;;70.25;54.00;;;;;12.39;64.34;101683.31;2094981;28;46159;-67
2023/04/18 02:17:40;;;;;;;;;66.50;52.25;;;;;12.38;64.27;101686.88;2085085;28;46368;-67
2023/04/18 02:18:42;;;;;;;;;64.50;52.00;;;;;12.39;64.38;101685.97;2088568;28;45642;-66
2023/04/18 02:19:42;;;;;;;;;67.60;52.00;;;;;12.36;64.33;101678.91;2094363;28;46895;-67
2023/04/18 02:20:43;;;;;;;;;33.25;30.75;;;;;12.36;64.27;101675.38;2095008;28;46430;-65
2023/04/18 02:21:43;;;;;;;;;64.25;51.00;;;;;12.34;64.58;101680.72;2095577;28;46569;-66
2023/04/18 02:22:44;;;;;;;;;66.50;52.25;;;;;12.33;64.46;101680.75;2090670;28;46353;-67
2023/04/18 02:23:44;;;;;;;;;64.00;51.00;;;;;12.31;64.50;101675.41;2085904;28;46346;-67
2023/04/18 02:24:44;;;;;;;;;64.00;51.00;;;;;12.31;64.66;101678.09;2087197;28;46793;-66
2023/04/18 02:25:45;;;;;;;;;65.00;51.50;;;;;12.32;64.48;101678.97;2090960;28;45462;-65
2023/04/18 02:26:45;;;;;;;;;65.00;52.50;;;;;12.31;64.57;101678.09;2088480;28;46901;-66
2023/04/18 02:27:45;;;;;;;;;67.25;54.00;;;;;12.30;64.57;101675.44;2089837;28;45238;-66
2023/04/18 02:28:46;;;;;;;;;67.75;53.50;;;;;12.30;64.71;101673.66;2083869;28;46629;-66
2023/04/18 02:29:46;;;;;;;;;64.00;51.00;;;;;12.29;64.61;101679.88;2089906;28;46256;-66
2023/04/18 02:30:46;;;;;;;;;67.00;51.50;;;;;12.29;64.66;101679.88;2086299;28;45828;-65
2023/04/18 02:31:47;;;;;;;;;70.00;54.25;;;;;12.27;64.44;101676.38;2084115;28;46198;-67
2023/04/18 02:32:51;;;;;;;;;70.50;56.00;;;;;12.27;64.48;101671.06;2087200;28;46286;-67
2023/04/18 02:33:51;;;;;;;;;68.00;53.00;;;;;12.27;64.58;101675.50;2083251;28;45736;-67
2023/04/18 02:34:52;;;;;;;;;64.75;53.00;;;;;12.26;64.35;101669.28;2086138;28;45269;-66
2023/04/18 02:35:52;;;;;;;;;66.75;53.00;;;;;12.26;64.36;101673.72;2086799;28;46356;-67
2023/04/18 02:36:52;;;;;;;;;67.25;53.00;;;;;12.24;64.62;101665.78;2086584;28;46687;-66
2023/04/18 02:37:52;;;;;;;;;68.75;53.25;;;;;12.24;64.63;101672.88;2087452;28;45636;-66
2023/04/18 02:38:53;;;;;;;;;68.75;52.00;;;;;12.23;64.49;101673.78;2085535;28;46324;-65
2023/04/18 02:39:54;;;;;;;;;65.40;51.40;;;;;12.22;64.62;101674.69;2086587;28;46575;-66
2023/04/18 02:40:54;;;;;;;;;65.75;51.25;;;;;12.21;64.49;101672.94;2086249;28;46415;-66
2023/04/18 02:41:55;;;;;;;;;68.00;53.00;;;;;12.21;64.81;101671.16;2087826;28;46214;-66
2023/04/18 02:42:55;;;;;;;;;66.50;53.50;;;;;12.21;64.59;101667.59;2086193;28;46251;-66
2023/04/18 02:43:55;;;;;;;;;65.25;52.50;;;;;12.22;64.55;101669.38;2087776;28;46063;-66
2023/04/18 02:44:56;;;;;;;;;65.75;52.00;;;;;12.19;64.63;101667.59;2085558;28;46772;-66
2023/04/18 02:45:56;;;;;;;;;64.25;52.25;;;;;12.19;64.65;101667.59;2085757;28;46332;-65
2023/04/18 02:46:57;;;;;;;;;63.50;50.25;;;;;12.18;64.55;101664.97;2083355;28;46369;-67
2023/04/18 02:47:57;;;;;;;;;65.50;52.75;;;;;12.17;64.55;101669.41;2086768;28;46188;-66
2023/04/18 02:48:57;;;;;;;;;66.00;53.00;;;;;12.17;64.52;101664.09;2089330;28;45238;-66
2023/04/18 02:49:58;;;;;;;;;70.50;55.25;;;;;12.17;64.75;101660.53;2087563;28;46169;-66
2023/04/18 02:51:02;;;;;;;;;65.50;51.50;;;;;12.16;64.56;101664.97;2085047;28;46421;-67
2023/04/18 02:52:02;;;;;;;;;66.20;51.00;;;;;12.16;64.68;101664.09;2090576;28;46741;-66
2023/04/18 02:53:03;;;;;;;;;68.75;55.00;;;;;12.15;64.66;101657.91;2085900;28;46489;-67
2023/04/18 02:54:03;;;;;;;;;61.25;50.00;;;;;12.15;64.62;101659.69;2087895;28;46472;-66
2023/04/18 02:55:04;;;;;;;;;71.50;54.25;;;;;12.14;64.54;101664.13;2091773;28;46640;-66
2023/04/18 02:56:05;;;;;;;;;64.25;51.75;;;;;12.13;64.84;101664.16;2095794;28;46049;-65
2023/04/18 02:57:05;;;;;;;;;67.25;53.75;;;;;12.14;64.57;101657.94;2078625;28;46918;-66
2023/04/18 02:58:05;;;;;;;;;67.50;51.75;;;;;12.14;64.57;101660.59;2078638;28;46762;-66
2023/04/18 02:59:06;;;;;;;;;69.50;54.00;;;;;12.13;64.55;101658.84;2094261;28;46663;-66
2023/04/18 03:00:07;;;;;;;;;67.00;53.50;;;;;12.12;64.84;101657.06;2094735;28;46418;-66
2023/04/18 03:01:08;;;;;;;;;67.80;53.60;;;;;12.12;64.71;101663.28;2085260;28;46328;-66
2023/04/18 03:02:08;;;;;;;;;66.75;52.50;;;;;12.12;64.56;101660.63;2086170;28;46884;-66
2023/04/18 03:03:09;;;;;;;;;70.25;55.00;;;;;12.12;64.67;101651.75;2087976;28;46129;-66
2023/04/18 03:04:10;;;;;;;;;67.75;53.25;;;;;12.11;64.72;101656.19;2086806;28;46304;-66
2023/04/18 03:05:10;;;;;;;;;66.50;52.75;;;;;12.11;64.51;101655.31;2086082;28;46386;-65
2023/04/18 03:06:11;;;;;;;;;68.50;54.25;;;;;12.11;64.59;101655.31;2089815;28;46822;-66
2023/04/18 03:07:11;;;;;;;;;64.75;52.50;;;;;12.10;64.50;101654.44;2085451;28;46657;-66
2023/04/18 03:08:12;;;;;;;;;65.00;51.50;;;;;12.10;64.56;101659.75;2078147;28;46168;-66
2023/04/18 03:09:12;;;;;;;;;58.25;48.75;;;;;12.11;64.50;101655.31;2077714;28;45516;-66
2023/04/18 03:10:12;;;;;;;;;66.50;52.00;;;;;12.11;64.52;101656.19;2079668;28;46943;-66
2023/04/18 03:11:13;;;;;;;;;69.00;54.00;;;;;12.11;64.54;101655.31;2076630;28;45630;-66
2023/04/18 03:12:13;;;;;;;;;63.00;50.75;;;;;12.11;64.55;101652.66;2081935;28;46412;-66
2023/04/18 03:13:15;;;;;;;;;68.00;52.25;;;;;12.11;64.60;101663.28;2086383;28;46181;-67
2023/04/18 03:14:15;;;;;;;;;68.60;52.80;;;;;12.11;64.59;101656.19;2086050;28;45217;-65
2023/04/18 03:15:15;;;;;;;;;67.50;51.75;;;;;12.11;64.53;101657.97;2084505;28;46172;-68
2023/04/18 03:16:16;;;;;;;;;64.50;51.25;;;;;12.10;64.50;101653.56;2077910;28;46439;-66
2023/04/18 03:17:17;;;;;;;;;67.00;53.00;;;;;12.09;64.78;101650.03;2077422;28;46700;-67
2023/04/18 03:18:17;;;;;;;;;68.25;53.25;;;;;12.10;64.43;101656.22;2086079;28;46383;-66
2023/04/18 03:19:18;;;;;;;;;67.75;52.50;;;;;12.09;64.45;101650.03;2085314;28;46452;-66
2023/04/18 03:20:18;;;;;;;;;63.75;50.00;;;;;12.09;64.46;101650.03;2093325;28;46154;-67
2023/04/18 03:21:19;;;;;;;;;66.00;51.25;;;;;12.09;64.46;101663.31;2085542;28;46972;-66
2023/04/18 03:22:19;;;;;;;;;66.00;53.50;;;;;12.08;64.52;101658.91;2086140;28;46362;-67
2023/04/18 03:23:19;;;;;;;;;67.50;52.00;;;;;12.07;64.28;101649.16;2085497;28;46957;-66
2023/04/18 03:24:20;;;;;;;;;68.75;53.25;;;;;12.07;64.36;101657.16;2079296;28;45252;-67
2023/04/18 03:25:20;;;;;;;;;62.75;49.25;;;;;12.06;64.41;101656.22;2084599;28;46373;-69
2023/04/18 03:26:21;;;;;;;;;65.25;52.00;;;;;12.07;64.32;101652.69;2083629;28;45691;-66
2023/04/18 03:27:21;;;;;;;;;64.40;51.60;;;;;12.06;64.42;101658.00;2076787;28;47000;-67
2023/04/18 03:28:22;;;;;;;;;67.50;52.00;;;;;12.06;64.42;101658.00;2089405;28;46308;-66
2023/04/18 03:29:22;;;;;;;;;65.75;52.00;;;;;12.05;64.46;101657.13;2083177;28;46751;-66
2023/04/18 03:30:24;;;;;;;;;67.75;51.75;;;;;12.04;64.35;101658.03;2088726;28;46509;-66
2023/04/18 03:31:25;;;;;;;;;66.40;52.60;;;;;12.04;64.53;101655.38;2088140;28;46804;-69
2023/04/18 03:32:25;;;;;;;;;64.25;52.00;;;;;12.03;64.51;101656.28;2087990;28;46257;-66
2023/04/18 03:33:27;;;;;;;;;62.50;49.25;;;;;12.03;64.34;101661.59;2097969;28;46921;-66
2023/04/18 03:34:28;;;;;;;;;67.00;53.00;;;;;12.04;64.40;101654.50;2102081;28;46463;-66
2023/04/18 03:35:28;;;;;;;;;65.25;51.25;;;;;12.03;64.48;101653.63;2092661;28;45759;-65
2023/04/18 03:36:30;;;;;;;;;67.50;52.75;;;;;12.01;64.32;101652.75;2096522;28;46490;-66
2023/04/18 03:37:30;;;;;;;;;65.00;51.40;;;;;12.00;64.46;101651.00;2088074;28;46414;-66
2023/04/18 03:38:30;;;;;;;;;64.50;53.00;;;;;11.98;64.27;101654.59;2091839;28;46285;-66
2023/04/18 03:39:31;;;;;;;;;67.25;53.25;;;;;11.97;64.58;101648.41;2069886;28;46397;-66
2023/04/18 03:40:31;;;;;;;;;63.00;50.25;;;;;11.97;64.30;101656.38;2071320;28;46648;-66
2023/04/18 03:41:31;;;;;;;;;67.25;53.75;;;;;11.96;64.62;101651.06;2094635;28;46311;-66
2023/04/18 03:42:32;;;;;;;;;67.75;53.75;;;;;11.97;64.61;101655.50;2096019;28;46823;-66
2023/04/18 03:43:32;;;;;;;;;66.25;53.25;;;;;11.95;64.36;101650.19;2097632;28;46630;-67
2023/04/18 03:44:32;;;;;;;;;65.25;53.25;;;;;11.95;64.56;101657.31;2097897;28;46896;-66
2023/04/18 03:45:33;;;;;;;;;65.75;52.25;;;;;11.95;64.72;101657.31;2092239;28;46446;-67
2023/04/18 03:46:33;;;;;;;;;64.25;51.25;;;;;11.94;64.68;101661.75;2097551;28;46656;-66
2023/04/18 03:47:34;;;;;;;;;67.00;53.00;;;;;11.94;64.50;101653.75;2086321;28;46428;-66
2023/04/18 03:48:36;;;;;;;;;67.75;53.00;;;;;11.93;64.58;101657.28;2090345;28;46451;-66
2023/04/18 03:49:36;;;;;;;;;67.20;54.00;;;;;11.92;64.69;101649.31;2093955;28;48360;-66
2023/04/18 03:50:36;;;;;;;;;67.00;52.75;;;;;11.91;64.55;101653.78;2095388;28;47463;-67
2023/04/18 03:51:46;;;;;;;;;69.25;54.50;;;;;11.90;64.78;101649.34;2094874;28;45040;-66
2023/04/18 03:52:46;;;;;;;;;69.20;54.40;;;;;11.90;64.72;101653.78;2094782;28;46183;-65
2023/04/18 03:53:47;;;;;;;;;64.50;51.75;;;;;11.90;64.62;101656.44;2095741;28;46580;-65
2023/04/18 03:54:47;;;;;;;;;65.50;53.00;;;;;11.89;64.78;101646.72;2094265;28;46625;-65
2023/04/18 03:55:48;;;;;;;;;67.00;52.00;;;;;11.90;64.86;101659.13;2097017;28;46530;-67
2023/04/18 03:56:48;;;;;;;;;66.25;51.75;;;;;11.89;64.69;101650.25;2093791;28;46488;-65
2023/04/18 03:57:49;;;;;;;;;68.00;53.25;;;;;11.88;64.87;101648.50;2093987;28;46740;-67
2023/04/18 03:58:49;;;;;;;;;64.75;51.00;;;;;11.89;64.89;101657.34;2092285;28;46558;-66
2023/04/18 03:59:50;;;;;;;;;61.50;49.50;;;;;11.87;64.73;101649.41;2088184;28;45862;-66
2023/04/18 04:00:50;;;;;;;;;65.50;52.75;;;;;11.87;64.92;101649.41;2090175;28;45713;-66
2023/04/18 04:01:51;;;;;;;;;67.00;53.75;;;;;11.86;65.05;101644.97;2095287;28;46654;-66
2023/04/18 04:02:51;;;;;;;;;66.75;52.50;;;;;11.86;65.01;101644.09;2093133;28;46450;-65
2023/04/18 04:03:51;;;;;;;;;67.50;52.25;;;;;11.86;65.12;101646.75;2097090;28;45522;-67
2023/04/18 04:04:52;;;;;;;;;66.00;52.50;;;;;11.85;65.20;101642.34;2088311;28;46286;-66
2023/04/18 04:05:53;;;;;;;;;65.00;53.00;;;;;11.84;64.95;101638.81;2086123;28;46516;-66
2023/04/18 04:06:54;;;;;;;;;67.60;54.20;;;;;11.84;64.93;101645.91;2094019;28;46534;-67
2023/04/18 04:07:55;;;;;;;;;68.00;52.75;;;;;11.83;65.34;101646.81;2095891;28;45905;-66
2023/04/18 04:08:55;;;;;;;;;66.50;53.00;;;;;11.82;65.03;101643.28;2094558;28;46487;-66
2023/04/18 04:09:57;;;;;;;;;64.75;50.75;;;;;11.82;64.91;101647.72;2091287;28;46486;-66
2023/04/18 04:10:57;;;;;;;;;67.00;52.00;;;;;11.82;65.04;101645.94;2094356;28;46626;-65
2023/04/18 04:11:58;;;;;;;;;66.00;53.75;;;;;11.82;64.90;101640.59;2083679;28;46390;-67
2023/04/18 04:12:58;;;;;;;;;68.25;54.00;;;;;11.82;65.16;101648.59;2085722;28;46734;-67
2023/04/18 04:13:58;;;;;;;;;68.75;54.25;;;;;11.84;65.16;101644.13;2095067;28;46558;-66
2023/04/18 04:14:58;;;;;;;;;67.25;53.25;;;;;11.83;65.04;101642.38;2093680;28;46407;-66
2023/04/18 04:15:59;;;;;;;;;69.75;54.75;;;;;11.83;65.16;101638.81;2095945;28;45546;-67
2023/04/18 04:16:59;;;;;;;;;67.75;52.50;;;;;11.82;65.06;101639.72;2094978;28;46476;-66
2023/04/18 04:18:00;;;;;;;;;65.25;52.50;;;;;11.81;65.15;101635.28;2094928;28;46828;-66
2023/04/18 04:19:00;;;;;;;;;65.75;52.50;;;;;11.81;65.17;101645.91;2092813;28;46349;-66
2023/04/18 04:20:01;;;;;;;;;72.00;54.50;;;;;11.81;64.99;101638.81;2097768;28;46029;-67
2023/04/18 04:21:02;;;;;;;;;67.50;53.00;;;;;11.80;65.27;101639.72;2084295;28;46324;-67
2023/04/18 04:22:02;;;;;;;;;65.75;52.75;;;;;11.79;65.07;101638.84;2088699;28;46562;-66
2023/04/18 04:23:02;;;;;;;;;67.50;53.00;;;;;11.79;65.14;101640.63;2093550;28;46276;-66
2023/04/18 04:24:03;;;;;;;;;69.50;55.75;;;;;11.79;65.11;101640.63;2095253;28;46596;-66
2023/04/18 04:25:04;;;;;;;;;67.50;54.00;;;;;11.77;65.33;101635.28;2094436;28;46260;-66
2023/04/18 04:26:04;;;;;;;;;68.25;55.00;;;;;11.76;65.25;101635.31;2088259;28;46505;-67
2023/04/18 04:27:04;;;;;;;;;69.50;54.50;;;;;11.75;65.42;101634.44;2085810;28;46535;-66
2023/04/18 04:28:05;;;;;;;;;67.75;54.25;;;;;11.75;65.28;101639.75;2095655;28;46945;-68
2023/04/18 04:29:05;;;;;;;;;70.25;54.25;;;;;11.75;65.37;101642.41;2096288;28;46765;-66
2023/04/18 04:30:07;;;;;;;;;67.00;53.00;;;;;11.75;65.34;101638.88;2086786;28;46051;-65
2023/04/18 04:31:09;;;;;;;;;68.20;52.80;;;;;11.74;65.43;101635.34;2087659;28;45213;-66
2023/04/18 04:32:09;;;;;;;;;69.60;53.60;;;;;11.73;65.36;101644.22;2097026;28;46324;-67
2023/04/18 04:33:10;;;;;;;;;69.50;53.75;;;;;11.73;65.41;101636.22;2091880;28;45798;-65
2023/04/18 04:34:10;;;;;;;;;70.75;56.75;;;;;11.73;65.47;101640.66;2095934;28;46553;-66
2023/04/18 04:35:11;;;;;;;;;67.75;54.00;;;;;11.72;65.52;101642.47;2093059;28;46531;-66
2023/04/18 04:36:13;;;;;;;;;67.50;53.00;;;;;11.72;65.44;101646.91;2097616;28;46359;-66